sensor_id;sensor_type;location;lat;lon;timestamp;P1;durP1;ratioP1;P2;durP2;ratioP2
84687;SDS011;74908;42.040;21.322;2024-01-25T00:01:35;8.10;;;4.55;;
84687;SDS011;74908;42.040;21.322;2024-01-25T00:04:10;10.07;;;5.97;;
84687;SDS011;74908;42.040;21.322;2024-01-25T00:06:37;12.00;;;6.30;;
84687;SDS011;74908;42.040;21.322;2024-01-25T00:09:03;11.80;;;6.32;;
84687;SDS011;74908;42.040;21.322;2024-01-25T00:11:32;13.23;;;6.22;;
84687;SDS011;74908;42.040;21.322;2024-01-25T00:13:59;10.23;;;5.68;;
84687;SDS011;74908;42.040;21.322;2024-01-25T00:16:28;11.38;;;6.03;;
84687;SDS011;74908;42.040;21.322;2024-01-25T00:18:54;13.10;;;5.70;;
84687;SDS011;74908;42.040;21.322;2024-01-25T00:21:20;10.57;;;6.15;;
84687;SDS011;74908;42.040;21.322;2024-01-25T00:23:47;12.45;;;4.85;;
84687;SDS011;74908;42.040;21.322;2024-01-25T00:26:13;11.35;;;6.43;;
84687;SDS011;74908;42.040;21.322;2024-01-25T00:28:39;12.43;;;5.43;;
84687;SDS011;74908;42.040;21.322;2024-01-25T00:31:06;9.70;;;5.28;;
84687;SDS011;74908;42.040;21.322;2024-01-25T00:33:33;10.00;;;4.93;;
84687;SDS011;74908;42.040;21.322;2024-01-25T00:35:59;9.68;;;6.18;;
84687;SDS011;74908;42.040;21.322;2024-01-25T00:38:26;8.40;;;4.50;;
84687;SDS011;74908;42.040;21.322;2024-01-25T00:40:52;8.65;;;4.55;;
84687;SDS011;74908;42.040;21.322;2024-01-25T00:43:18;8.80;;;5.22;;
84687;SDS011;74908;42.040;21.322;2024-01-25T00:45:45;8.85;;;4.55;;
84687;SDS011;74908;42.040;21.322;2024-01-25T00:48:11;10.43;;;4.70;;
84687;SDS011;74908;42.040;21.322;2024-01-25T00:50:38;11.43;;;5.68;;
84687;SDS011;74908;42.040;21.322;2024-01-25T00:53:04;7.93;;;4.85;;
84687;SDS011;74908;42.040;21.322;2024-01-25T00:55:31;13.10;;;6.00;;
84687;SDS011;74908;42.040;21.322;2024-01-25T00:57:58;10.55;;;5.28;;
84687;SDS011;74908;42.040;21.322;2024-01-25T01:00:25;8.30;;;4.88;;
84687;SDS011;74908;42.040;21.322;2024-01-25T01:02:51;8.45;;;4.13;;
84687;SDS011;74908;42.040;21.322;2024-01-25T01:05:19;8.32;;;4.90;;
84687;SDS011;74908;42.040;21.322;2024-01-25T01:07:46;9.85;;;4.70;;
84687;SDS011;74908;42.040;21.322;2024-01-25T01:10:12;11.70;;;5.90;;
84687;SDS011;74908;42.040;21.322;2024-01-25T01:12:39;10.73;;;4.85;;
84687;SDS011;74908;42.040;21.322;2024-01-25T01:15:05;11.38;;;6.22;;
84687;SDS011;74908;42.040;21.322;2024-01-25T01:17:32;15.80;;;9.65;;
84687;SDS011;74908;42.040;21.322;2024-01-25T01:19:58;19.15;;;9.57;;
84687;SDS011;74908;42.040;21.322;2024-01-25T01:22:25;24.38;;;13.18;;
84687;SDS011;74908;42.040;21.322;2024-01-25T01:24:59;22.65;;;10.55;;
84687;SDS011;74908;42.040;21.322;2024-01-25T01:27:26;22.95;;;10.75;;
84687;SDS011;74908;42.040;21.322;2024-01-25T01:29:52;25.73;;;11.73;;
84687;SDS011;74908;42.040;21.322;2024-01-25T01:32:18;20.20;;;10.45;;
84687;SDS011;74908;42.040;21.322;2024-01-25T01:34:45;21.40;;;11.57;;
84687;SDS011;74908;42.040;21.322;2024-01-25T01:37:11;16.27;;;10.40;;
84687;SDS011;74908;42.040;21.322;2024-01-25T01:39:37;18.58;;;10.52;;
84687;SDS011;74908;42.040;21.322;2024-01-25T01:42:04;18.27;;;10.45;;
84687;SDS011;74908;42.040;21.322;2024-01-25T01:44:30;17.83;;;9.75;;
84687;SDS011;74908;42.040;21.322;2024-01-25T01:46:56;9.40;;;5.15;;
84687;SDS011;74908;42.040;21.322;2024-01-25T01:49:23;11.73;;;7.07;;
84687;SDS011;74908;42.040;21.322;2024-01-25T01:51:56;11.43;;;6.03;;
84687;SDS011;74908;42.040;21.322;2024-01-25T01:54:23;11.50;;;6.70;;
84687;SDS011;74908;42.040;21.322;2024-01-25T01:56:50;11.15;;;5.63;;
84687;SDS011;74908;42.040;21.322;2024-01-25T01:59:16;10.77;;;6.00;;
84687;SDS011;74908;42.040;21.322;2024-01-25T02:01:43;8.77;;;5.70;;
84687;SDS011;74908;42.040;21.322;2024-01-25T02:04:09;9.52;;;5.32;;
84687;SDS011;74908;42.040;21.322;2024-01-25T02:06:36;10.52;;;5.30;;
84687;SDS011;74908;42.040;21.322;2024-01-25T02:09:02;10.52;;;5.47;;
84687;SDS011;74908;42.040;21.322;2024-01-25T02:11:29;8.88;;;5.35;;
84687;SDS011;74908;42.040;21.322;2024-01-25T02:13:55;12.27;;;5.28;;
84687;SDS011;74908;42.040;21.322;2024-01-25T02:16:22;12.18;;;6.30;;
84687;SDS011;74908;42.040;21.322;2024-01-25T02:18:48;14.05;;;5.63;;
84687;SDS011;74908;42.040;21.322;2024-01-25T02:21:15;10.52;;;4.28;;
84687;SDS011;74908;42.040;21.322;2024-01-25T02:23:41;7.97;;;4.55;;
84687;SDS011;74908;42.040;21.322;2024-01-25T02:26:07;8.75;;;4.53;;
84687;SDS011;74908;42.040;21.322;2024-01-25T02:28:33;7.50;;;4.40;;
84687;SDS011;74908;42.040;21.322;2024-01-25T02:31:01;10.35;;;5.07;;
84687;SDS011;74908;42.040;21.322;2024-01-25T02:33:27;8.48;;;4.80;;
84687;SDS011;74908;42.040;21.322;2024-01-25T02:35:54;7.30;;;3.80;;
84687;SDS011;74908;42.040;21.322;2024-01-25T02:38:21;7.93;;;4.75;;
84687;SDS011;74908;42.040;21.322;2024-01-25T02:40:47;8.05;;;4.40;;
84687;SDS011;74908;42.040;21.322;2024-01-25T02:43:17;7.25;;;3.95;;
84687;SDS011;74908;42.040;21.322;2024-01-25T02:45:43;11.77;;;4.95;;
84687;SDS011;74908;42.040;21.322;2024-01-25T02:48:09;10.05;;;4.93;;
84687;SDS011;74908;42.040;21.322;2024-01-25T02:50:35;7.30;;;4.65;;
84687;SDS011;74908;42.040;21.322;2024-01-25T02:53:01;9.18;;;4.35;;
84687;SDS011;74908;42.040;21.322;2024-01-25T02:55:28;8.60;;;4.13;;
84687;SDS011;74908;42.040;21.322;2024-01-25T02:57:54;9.98;;;4.75;;
84687;SDS011;74908;42.040;21.322;2024-01-25T03:00:20;7.03;;;3.83;;
84687;SDS011;74908;42.040;21.322;2024-01-25T03:02:47;6.15;;;3.58;;
84687;SDS011;74908;42.040;21.322;2024-01-25T03:05:13;9.80;;;4.72;;
84687;SDS011;74908;42.040;21.322;2024-01-25T03:07:39;7.47;;;3.78;;
84687;SDS011;74908;42.040;21.322;2024-01-25T03:10:06;6.70;;;3.88;;
84687;SDS011;74908;42.040;21.322;2024-01-25T03:12:33;7.25;;;3.95;;
84687;SDS011;74908;42.040;21.322;2024-01-25T03:15:00;7.20;;;4.18;;
84687;SDS011;74908;42.040;21.322;2024-01-25T03:17:26;6.35;;;3.78;;
84687;SDS011;74908;42.040;21.322;2024-01-25T03:19:53;8.02;;;4.53;;
84687;SDS011;74908;42.040;21.322;2024-01-25T03:22:19;6.25;;;4.18;;
84687;SDS011;74908;42.040;21.322;2024-01-25T03:24:47;6.35;;;3.45;;
84687;SDS011;74908;42.040;21.322;2024-01-25T03:27:13;9.40;;;4.88;;
84687;SDS011;74908;42.040;21.322;2024-01-25T03:29:43;5.00;;;3.55;;
84687;SDS011;74908;42.040;21.322;2024-01-25T03:32:10;7.22;;;3.83;;
84687;SDS011;74908;42.040;21.322;2024-01-25T03:34:36;8.57;;;4.10;;
84687;SDS011;74908;42.040;21.322;2024-01-25T03:37:02;6.85;;;4.03;;
84687;SDS011;74908;42.040;21.322;2024-01-25T03:39:28;6.32;;;4.18;;
84687;SDS011;74908;42.040;21.322;2024-01-25T03:41:55;4.85;;;3.05;;
84687;SDS011;74908;42.040;21.322;2024-01-25T03:44:21;4.60;;;3.15;;
84687;SDS011;74908;42.040;21.322;2024-01-25T03:46:47;8.40;;;3.45;;
84687;SDS011;74908;42.040;21.322;2024-01-25T03:49:14;6.15;;;3.75;;
84687;SDS011;74908;42.040;21.322;2024-01-25T03:51:40;7.65;;;3.65;;
84687;SDS011;74908;42.040;21.322;2024-01-25T03:54:06;5.38;;;3.40;;
84687;SDS011;74908;42.040;21.322;2024-01-25T03:56:32;7.97;;;4.65;;
84687;SDS011;74908;42.040;21.322;2024-01-25T03:58:59;9.35;;;4.60;;
84687;SDS011;74908;42.040;21.322;2024-01-25T04:01:25;6.20;;;3.55;;
84687;SDS011;74908;42.040;21.322;2024-01-25T04:03:51;6.35;;;4.25;;
84687;SDS011;74908;42.040;21.322;2024-01-25T04:06:18;8.88;;;3.95;;
84687;SDS011;74908;42.040;21.322;2024-01-25T04:08:44;6.85;;;3.30;;
84687;SDS011;74908;42.040;21.322;2024-01-25T04:11:11;9.27;;;3.63;;
84687;SDS011;74908;42.040;21.322;2024-01-25T04:13:40;6.13;;;4.25;;
84687;SDS011;74908;42.040;21.322;2024-01-25T04:16:06;8.35;;;4.10;;
84687;SDS011;74908;42.040;21.322;2024-01-25T04:18:33;6.63;;;2.83;;
84687;SDS011;74908;42.040;21.322;2024-01-25T04:20:59;5.22;;;3.13;;
84687;SDS011;74908;42.040;21.322;2024-01-25T04:23:26;8.80;;;3.63;;
84687;SDS011;74908;42.040;21.322;2024-01-25T04:25:52;8.07;;;4.13;;
84687;SDS011;74908;42.040;21.322;2024-01-25T04:28:20;9.70;;;4.75;;
84687;SDS011;74908;42.040;21.322;2024-01-25T04:30:46;10.40;;;5.22;;
84687;SDS011;74908;42.040;21.322;2024-01-25T04:33:13;11.18;;;4.72;;
84687;SDS011;74908;42.040;21.322;2024-01-25T04:35:39;11.27;;;5.53;;
84687;SDS011;74908;42.040;21.322;2024-01-25T04:38:05;13.45;;;4.90;;
84687;SDS011;74908;42.040;21.322;2024-01-25T04:40:32;8.75;;;4.40;;
84687;SDS011;74908;42.040;21.322;2024-01-25T04:42:58;7.30;;;4.43;;
84687;SDS011;74908;42.040;21.322;2024-01-25T04:45:24;9.43;;;4.38;;
84687;SDS011;74908;42.040;21.322;2024-01-25T04:47:50;5.68;;;3.72;;
84687;SDS011;74908;42.040;21.322;2024-01-25T04:50:17;6.78;;;3.60;;
84687;SDS011;74908;42.040;21.322;2024-01-25T04:52:43;7.30;;;3.95;;
84687;SDS011;74908;42.040;21.322;2024-01-25T04:55:10;7.78;;;4.50;;
84687;SDS011;74908;42.040;21.322;2024-01-25T04:57:36;7.43;;;3.75;;
84687;SDS011;74908;42.040;21.322;2024-01-25T05:00:02;10.68;;;4.75;;
84687;SDS011;74908;42.040;21.322;2024-01-25T05:02:29;8.45;;;4.85;;
84687;SDS011;74908;42.040;21.322;2024-01-25T05:04:56;12.35;;;5.70;;
84687;SDS011;74908;42.040;21.322;2024-01-25T05:07:22;12.63;;;6.47;;
84687;SDS011;74908;42.040;21.322;2024-01-25T05:09:48;10.75;;;5.47;;
84687;SDS011;74908;42.040;21.322;2024-01-25T05:12:14;11.15;;;5.63;;
84687;SDS011;74908;42.040;21.322;2024-01-25T05:14:41;11.35;;;6.80;;
84687;SDS011;74908;42.040;21.322;2024-01-25T05:17:07;15.30;;;7.47;;
84687;SDS011;74908;42.040;21.322;2024-01-25T05:19:33;13.20;;;6.25;;
84687;SDS011;74908;42.040;21.322;2024-01-25T05:21:59;10.75;;;5.47;;
84687;SDS011;74908;42.040;21.322;2024-01-25T05:24:26;8.65;;;4.65;;
84687;SDS011;74908;42.040;21.322;2024-01-25T05:26:52;7.20;;;3.95;;
84687;SDS011;74908;42.040;21.322;2024-01-25T05:29:19;6.90;;;4.07;;
84687;SDS011;74908;42.040;21.322;2024-01-25T05:31:45;7.40;;;3.50;;
84687;SDS011;74908;42.040;21.322;2024-01-25T05:34:14;7.05;;;3.83;;
84687;SDS011;74908;42.040;21.322;2024-01-25T05:36:40;6.43;;;3.47;;
84687;SDS011;74908;42.040;21.322;2024-01-25T05:39:09;8.43;;;4.05;;
84687;SDS011;74908;42.040;21.322;2024-01-25T05:41:35;5.40;;;4.03;;
84687;SDS011;74908;42.040;21.322;2024-01-25T05:44:02;6.88;;;4.15;;
84687;SDS011;74908;42.040;21.322;2024-01-25T05:46:28;8.80;;;3.75;;
84687;SDS011;74908;42.040;21.322;2024-01-25T05:48:55;4.45;;;2.97;;
84687;SDS011;74908;42.040;21.322;2024-01-25T05:51:21;14.00;;;7.88;;
84687;SDS011;74908;42.040;21.322;2024-01-25T05:53:48;20.90;;;10.65;;
84687;SDS011;74908;42.040;21.322;2024-01-25T05:56:14;16.77;;;11.18;;
84687;SDS011;74908;42.040;21.322;2024-01-25T05:58:40;25.00;;;13.48;;
84687;SDS011;74908;42.040;21.322;2024-01-25T06:01:06;14.80;;;8.77;;
84687;SDS011;74908;42.040;21.322;2024-01-25T06:03:33;12.38;;;7.78;;
84687;SDS011;74908;42.040;21.322;2024-01-25T06:05:59;10.93;;;6.50;;
84687;SDS011;74908;42.040;21.322;2024-01-25T06:08:25;8.90;;;5.28;;
84687;SDS011;74908;42.040;21.322;2024-01-25T06:10:51;4.45;;;2.50;;
84687;SDS011;74908;42.040;21.322;2024-01-25T06:13:17;5.28;;;3.08;;
84687;SDS011;74908;42.040;21.322;2024-01-25T06:15:43;5.60;;;2.88;;
84687;SDS011;74908;42.040;21.322;2024-01-25T06:18:09;7.85;;;3.28;;
84687;SDS011;74908;42.040;21.322;2024-01-25T06:20:36;7.25;;;3.63;;
84687;SDS011;74908;42.040;21.322;2024-01-25T06:23:02;6.90;;;4.30;;
84687;SDS011;74908;42.040;21.322;2024-01-25T06:25:28;4.95;;;3.40;;
84687;SDS011;74908;42.040;21.322;2024-01-25T06:27:56;12.95;;;7.25;;
84687;SDS011;74908;42.040;21.322;2024-01-25T06:30:23;15.10;;;7.78;;
84687;SDS011;74908;42.040;21.322;2024-01-25T06:32:49;16.67;;;8.75;;
84687;SDS011;74908;42.040;21.322;2024-01-25T06:35:15;19.20;;;8.77;;
84687;SDS011;74908;42.040;21.322;2024-01-25T06:37:42;14.55;;;8.30;;
84687;SDS011;74908;42.040;21.322;2024-01-25T06:40:08;13.70;;;6.95;;
84687;SDS011;74908;42.040;21.322;2024-01-25T06:42:34;9.43;;;4.65;;
84687;SDS011;74908;42.040;21.322;2024-01-25T06:45:01;7.35;;;4.57;;
84687;SDS011;74908;42.040;21.322;2024-01-25T06:47:28;21.05;;;11.57;;
84687;SDS011;74908;42.040;21.322;2024-01-25T06:49:55;18.33;;;11.60;;
84687;SDS011;74908;42.040;21.322;2024-01-25T06:52:21;22.70;;;11.52;;
84687;SDS011;74908;42.040;21.322;2024-01-25T06:54:47;19.05;;;11.02;;
84687;SDS011;74908;42.040;21.322;2024-01-25T06:57:14;16.13;;;9.85;;
84687;SDS011;74908;42.040;21.322;2024-01-25T06:59:40;16.83;;;10.43;;
84687;SDS011;74908;42.040;21.322;2024-01-25T07:02:06;17.33;;;10.27;;
84687;SDS011;74908;42.040;21.322;2024-01-25T07:04:33;18.85;;;10.10;;
84687;SDS011;74908;42.040;21.322;2024-01-25T07:06:59;16.15;;;8.65;;
84687;SDS011;74908;42.040;21.322;2024-01-25T07:09:25;13.23;;;7.00;;
84687;SDS011;74908;42.040;21.322;2024-01-25T07:11:51;11.25;;;6.07;;
84687;SDS011;74908;42.040;21.322;2024-01-25T07:14:18;11.65;;;6.72;;
84687;SDS011;74908;42.040;21.322;2024-01-25T07:16:44;21.92;;;9.82;;
84687;SDS011;74908;42.040;21.322;2024-01-25T07:19:10;14.75;;;7.85;;
84687;SDS011;74908;42.040;21.322;2024-01-25T07:21:36;12.13;;;8.43;;
84687;SDS011;74908;42.040;21.322;2024-01-25T07:24:02;18.48;;;11.18;;
84687;SDS011;74908;42.040;21.322;2024-01-25T07:26:29;18.52;;;11.52;;
84687;SDS011;74908;42.040;21.322;2024-01-25T07:28:56;22.92;;;11.73;;
84687;SDS011;74908;42.040;21.322;2024-01-25T07:31:26;20.73;;;12.48;;
84687;SDS011;74908;42.040;21.322;2024-01-25T07:33:53;17.65;;;10.48;;
84687;SDS011;74908;42.040;21.322;2024-01-25T07:36:20;14.98;;;8.60;;
84687;SDS011;74908;42.040;21.322;2024-01-25T07:38:46;19.20;;;9.68;;
84687;SDS011;74908;42.040;21.322;2024-01-25T07:41:13;19.85;;;8.90;;
84687;SDS011;74908;42.040;21.322;2024-01-25T07:43:39;17.55;;;8.05;;
84687;SDS011;74908;42.040;21.322;2024-01-25T07:46:06;14.73;;;8.15;;
84687;SDS011;74908;42.040;21.322;2024-01-25T07:48:32;16.17;;;8.73;;
84687;SDS011;74908;42.040;21.322;2024-01-25T07:50:59;15.90;;;8.70;;
84687;SDS011;74908;42.040;21.322;2024-01-25T07:53:25;11.93;;;6.65;;
84687;SDS011;74908;42.040;21.322;2024-01-25T07:55:51;7.90;;;4.50;;
84687;SDS011;74908;42.040;21.322;2024-01-25T07:58:17;11.85;;;7.20;;
84687;SDS011;74908;42.040;21.322;2024-01-25T08:00:43;15.40;;;7.30;;
84687;SDS011;74908;42.040;21.322;2024-01-25T08:03:10;13.60;;;7.75;;
84687;SDS011;74908;42.040;21.322;2024-01-25T08:05:36;10.13;;;6.55;;
84687;SDS011;74908;42.040;21.322;2024-01-25T08:08:03;9.00;;;5.18;;
84687;SDS011;74908;42.040;21.322;2024-01-25T08:10:29;15.48;;;6.47;;
84687;SDS011;74908;42.040;21.322;2024-01-25T08:12:55;8.90;;;5.03;;
84687;SDS011;74908;42.040;21.322;2024-01-25T08:15:22;7.82;;;4.13;;
84687;SDS011;74908;42.040;21.322;2024-01-25T08:17:48;8.63;;;4.13;;
84687;SDS011;74908;42.040;21.322;2024-01-25T08:20:14;7.80;;;4.13;;
84687;SDS011;74908;42.040;21.322;2024-01-25T08:22:41;7.57;;;4.13;;
84687;SDS011;74908;42.040;21.322;2024-01-25T08:25:07;7.57;;;3.42;;
84687;SDS011;74908;42.040;21.322;2024-01-25T08:27:34;13.48;;;7.28;;
84687;SDS011;74908;42.040;21.322;2024-01-25T08:30:00;12.00;;;7.13;;
84687;SDS011;74908;42.040;21.322;2024-01-25T08:32:28;12.70;;;7.28;;
84687;SDS011;74908;42.040;21.322;2024-01-25T08:34:54;12.68;;;6.25;;
84687;SDS011;74908;42.040;21.322;2024-01-25T08:37:20;12.95;;;6.75;;
84687;SDS011;74908;42.040;21.322;2024-01-25T08:39:46;10.02;;;4.97;;
84687;SDS011;74908;42.040;21.322;2024-01-25T08:42:18;7.28;;;4.38;;
84687;SDS011;74908;42.040;21.322;2024-01-25T08:44:45;8.25;;;5.00;;
84687;SDS011;74908;42.040;21.322;2024-01-25T08:47:17;6.78;;;4.80;;
84687;SDS011;74908;42.040;21.322;2024-01-25T08:49:44;9.02;;;5.25;;
84687;SDS011;74908;42.040;21.322;2024-01-25T08:52:10;8.55;;;5.40;;
84687;SDS011;74908;42.040;21.322;2024-01-25T08:54:36;26.35;;;10.45;;
84687;SDS011;74908;42.040;21.322;2024-01-25T08:57:03;19.25;;;8.65;;
84687;SDS011;74908;42.040;21.322;2024-01-25T08:59:31;36.60;;;13.55;;
84687;SDS011;74908;42.040;21.322;2024-01-25T09:01:58;6.32;;;4.20;;
84687;SDS011;74908;42.040;21.322;2024-01-25T09:04:24;9.18;;;5.85;;
84687;SDS011;74908;42.040;21.322;2024-01-25T09:06:50;13.82;;;7.95;;
84687;SDS011;74908;42.040;21.322;2024-01-25T09:09:17;11.98;;;8.35;;
84687;SDS011;74908;42.040;21.322;2024-01-25T09:11:43;21.92;;;12.85;;
84687;SDS011;74908;42.040;21.322;2024-01-25T09:14:09;20.85;;;8.75;;
84687;SDS011;74908;42.040;21.322;2024-01-25T09:16:35;12.88;;;8.10;;
84687;SDS011;74908;42.040;21.322;2024-01-25T09:19:03;15.88;;;8.30;;
84687;SDS011;74908;42.040;21.322;2024-01-25T09:21:30;13.15;;;6.72;;
84687;SDS011;74908;42.040;21.322;2024-01-25T09:23:56;10.98;;;6.32;;
84687;SDS011;74908;42.040;21.322;2024-01-25T09:26:22;11.23;;;5.97;;
84687;SDS011;74908;42.040;21.322;2024-01-25T09:28:48;9.38;;;5.82;;
84687;SDS011;74908;42.040;21.322;2024-01-25T09:31:15;10.25;;;6.32;;
84687;SDS011;74908;42.040;21.322;2024-01-25T09:33:41;10.45;;;6.28;;
84687;SDS011;74908;42.040;21.322;2024-01-25T09:36:07;10.82;;;5.63;;
84687;SDS011;74908;42.040;21.322;2024-01-25T09:38:33;7.18;;;4.47;;
84687;SDS011;74908;42.040;21.322;2024-01-25T09:40:59;9.48;;;3.95;;
84687;SDS011;74908;42.040;21.322;2024-01-25T09:43:27;8.50;;;4.63;;
84687;SDS011;74908;42.040;21.322;2024-01-25T09:45:53;10.38;;;5.93;;
84687;SDS011;74908;42.040;21.322;2024-01-25T09:48:22;9.85;;;6.10;;
84687;SDS011;74908;42.040;21.322;2024-01-25T09:50:48;14.23;;;6.38;;
84687;SDS011;74908;42.040;21.322;2024-01-25T09:53:17;10.52;;;5.63;;
84687;SDS011;74908;42.040;21.322;2024-01-25T09:55:45;12.30;;;5.80;;
84687;SDS011;74908;42.040;21.322;2024-01-25T09:58:13;7.75;;;4.80;;
84687;SDS011;74908;42.040;21.322;2024-01-25T10:00:40;7.47;;;5.40;;
84687;SDS011;74908;42.040;21.322;2024-01-25T10:03:09;9.25;;;4.82;;
84687;SDS011;74908;42.040;21.322;2024-01-25T10:05:35;8.80;;;5.43;;
84687;SDS011;74908;42.040;21.322;2024-01-25T10:08:01;8.80;;;4.82;;
84687;SDS011;74908;42.040;21.322;2024-01-25T10:10:31;10.85;;;6.22;;
84687;SDS011;74908;42.040;21.322;2024-01-25T10:12:58;9.40;;;5.15;;
84687;SDS011;74908;42.040;21.322;2024-01-25T10:15:24;8.20;;;5.28;;
84687;SDS011;74908;42.040;21.322;2024-01-25T10:17:51;8.93;;;5.57;;
84687;SDS011;74908;42.040;21.322;2024-01-25T10:20:17;9.02;;;6.00;;
84687;SDS011;74908;42.040;21.322;2024-01-25T10:22:46;10.05;;;5.65;;
84687;SDS011;74908;42.040;21.322;2024-01-25T10:25:13;7.97;;;5.05;;
84687;SDS011;74908;42.040;21.322;2024-01-25T10:27:39;7.63;;;3.80;;
84687;SDS011;74908;42.040;21.322;2024-01-25T10:30:06;5.10;;;3.30;;
84687;SDS011;74908;42.040;21.322;2024-01-25T10:32:33;6.53;;;3.72;;
84687;SDS011;74908;42.040;21.322;2024-01-25T10:35:01;6.68;;;4.03;;
84687;SDS011;74908;42.040;21.322;2024-01-25T10:37:28;7.68;;;4.55;;
84687;SDS011;74908;42.040;21.322;2024-01-25T10:39:55;5.85;;;3.92;;
84687;SDS011;74908;42.040;21.322;2024-01-25T10:42:21;9.55;;;4.95;;
84687;SDS011;74908;42.040;21.322;2024-01-25T10:44:47;8.07;;;5.53;;
84687;SDS011;74908;42.040;21.322;2024-01-25T10:47:13;7.32;;;5.05;;
84687;SDS011;74908;42.040;21.322;2024-01-25T10:49:40;9.15;;;4.80;;
84687;SDS011;74908;42.040;21.322;2024-01-25T10:52:07;14.73;;;6.93;;
84687;SDS011;74908;42.040;21.322;2024-01-25T10:54:33;13.13;;;6.68;;
84687;SDS011;74908;42.040;21.322;2024-01-25T10:57:00;15.55;;;8.90;;
84687;SDS011;74908;42.040;21.322;2024-01-25T10:59:28;17.30;;;10.27;;
84687;SDS011;74908;42.040;21.322;2024-01-25T11:01:54;19.33;;;11.98;;
84687;SDS011;74908;42.040;21.322;2024-01-25T11:04:20;9.35;;;4.63;;
84687;SDS011;74908;42.040;21.322;2024-01-25T11:06:47;3.95;;;2.38;;
84687;SDS011;74908;42.040;21.322;2024-01-25T11:09:20;4.13;;;1.50;;
84687;SDS011;74908;42.040;21.322;2024-01-25T11:11:47;2.92;;;1.42;;
84687;SDS011;74908;42.040;21.322;2024-01-25T11:14:14;2.30;;;1.70;;
84687;SDS011;74908;42.040;21.322;2024-01-25T11:16:42;3.88;;;1.85;;
84687;SDS011;74908;42.040;21.322;2024-01-25T11:19:19;4.75;;;1.90;;
84687;SDS011;74908;42.040;21.322;2024-01-25T11:21:46;3.15;;;1.67;;
84687;SDS011;74908;42.040;21.322;2024-01-25T11:24:13;2.35;;;1.67;;
84687;SDS011;74908;42.040;21.322;2024-01-25T11:26:42;7.13;;;2.85;;
84687;SDS011;74908;42.040;21.322;2024-01-25T11:29:08;2.38;;;1.38;;
84687;SDS011;74908;42.040;21.322;2024-01-25T11:31:34;4.80;;;1.85;;
84687;SDS011;74908;42.040;21.322;2024-01-25T11:34:01;4.28;;;1.25;;
84687;SDS011;74908;42.040;21.322;2024-01-25T11:36:27;4.13;;;1.95;;
84687;SDS011;74908;42.040;21.322;2024-01-25T11:38:54;3.20;;;1.67;;
84687;SDS011;74908;42.040;21.322;2024-01-25T11:41:20;4.72;;;2.05;;
84687;SDS011;74908;42.040;21.322;2024-01-25T11:43:50;4.50;;;1.52;;
84687;SDS011;74908;42.040;21.322;2024-01-25T11:46:16;3.58;;;2.00;;
84687;SDS011;74908;42.040;21.322;2024-01-25T11:48:43;5.25;;;1.40;;
84687;SDS011;74908;42.040;21.322;2024-01-25T11:51:10;4.90;;;1.70;;
84687;SDS011;74908;42.040;21.322;2024-01-25T11:53:36;3.22;;;1.67;;
84687;SDS011;74908;42.040;21.322;2024-01-25T11:56:03;6.82;;;1.92;;
84687;SDS011;74908;42.040;21.322;2024-01-25T11:58:30;3.92;;;1.55;;
84687;SDS011;74908;42.040;21.322;2024-01-25T12:00:57;3.47;;;1.73;;
84687;SDS011;74908;42.040;21.322;2024-01-25T12:03:23;4.55;;;1.73;;
84687;SDS011;74908;42.040;21.322;2024-01-25T12:05:49;1.52;;;1.17;;
84687;SDS011;74908;42.040;21.322;2024-01-25T12:08:16;2.17;;;1.48;;
84687;SDS011;74908;42.040;21.322;2024-01-25T12:10:43;3.28;;;1.60;;
84687;SDS011;74908;42.040;21.322;2024-01-25T12:13:09;6.97;;;1.33;;
84687;SDS011;74908;42.040;21.322;2024-01-25T12:15:35;2.47;;;1.50;;
84687;SDS011;74908;42.040;21.322;2024-01-25T12:18:02;5.25;;;1.48;;
84687;SDS011;74908;42.040;21.322;2024-01-25T12:20:28;7.18;;;1.13;;
84687;SDS011;74908;42.040;21.322;2024-01-25T12:22:54;2.30;;;0.82;;
84687;SDS011;74908;42.040;21.322;2024-01-25T12:25:24;1.02;;;0.50;;
84687;SDS011;74908;42.040;21.322;2024-01-25T12:27:50;1.45;;;0.68;;
84687;SDS011;74908;42.040;21.322;2024-01-25T12:30:16;1.63;;;0.60;;
84687;SDS011;74908;42.040;21.322;2024-01-25T12:32:43;1.73;;;0.60;;
84687;SDS011;74908;42.040;21.322;2024-01-25T12:35:09;1.75;;;0.60;;
84687;SDS011;74908;42.040;21.322;2024-01-25T12:37:35;1.63;;;0.60;;
84687;SDS011;74908;42.040;21.322;2024-01-25T12:40:01;1.20;;;0.57;;
84687;SDS011;74908;42.040;21.322;2024-01-25T12:42:27;5.82;;;1.30;;
84687;SDS011;74908;42.040;21.322;2024-01-25T12:44:54;1.13;;;0.77;;
84687;SDS011;74908;42.040;21.322;2024-01-25T12:47:20;7.38;;;2.25;;
84687;SDS011;74908;42.040;21.322;2024-01-25T12:49:46;6.85;;;1.40;;
84687;SDS011;74908;42.040;21.322;2024-01-25T12:52:13;1.67;;;0.73;;
84687;SDS011;74908;42.040;21.322;2024-01-25T12:54:40;2.47;;;1.15;;
84687;SDS011;74908;42.040;21.322;2024-01-25T12:59:50;1.27;;;0.50;;
84687;SDS011;74908;42.040;21.322;2024-01-25T13:02:16;1.42;;;0.98;;
84687;SDS011;74908;42.040;21.322;2024-01-25T13:04:43;1.95;;;1.10;;
84687;SDS011;74908;42.040;21.322;2024-01-25T13:07:09;2.10;;;0.70;;
84687;SDS011;74908;42.040;21.322;2024-01-25T13:09:35;2.35;;;0.60;;
84687;SDS011;74908;42.040;21.322;2024-01-25T13:12:02;1.10;;;0.35;;
84687;SDS011;74908;42.040;21.322;2024-01-25T13:14:28;0.30;;;0.20;;
84687;SDS011;74908;42.040;21.322;2024-01-25T13:16:55;2.90;;;0.60;;
84687;SDS011;74908;42.040;21.322;2024-01-25T13:19:21;1.30;;;0.68;;
84687;SDS011;74908;42.040;21.322;2024-01-25T13:21:48;1.00;;;0.65;;
84687;SDS011;74908;42.040;21.322;2024-01-25T13:24:14;0.98;;;0.50;;
84687;SDS011;74908;42.040;21.322;2024-01-25T13:26:40;0.75;;;0.50;;
84687;SDS011;74908;42.040;21.322;2024-01-25T13:29:07;4.40;;;2.03;;
84687;SDS011;74908;42.040;21.322;2024-01-25T13:31:38;6.47;;;2.72;;
84687;SDS011;74908;42.040;21.322;2024-01-25T13:34:04;3.00;;;2.13;;
84687;SDS011;74908;42.040;21.322;2024-01-25T13:36:30;3.55;;;1.75;;
84687;SDS011;74908;42.040;21.322;2024-01-25T13:38:56;3.67;;;1.38;;
84687;SDS011;74908;42.040;21.322;2024-01-25T13:41:23;4.30;;;2.13;;
84687;SDS011;74908;42.040;21.322;2024-01-25T13:43:49;4.72;;;2.40;;
84687;SDS011;74908;42.040;21.322;2024-01-25T13:46:15;6.22;;;2.25;;
84687;SDS011;74908;42.040;21.322;2024-01-25T13:48:41;4.15;;;1.77;;
84687;SDS011;74908;42.040;21.322;2024-01-25T13:51:07;1.85;;;1.13;;
84687;SDS011;74908;42.040;21.322;2024-01-25T13:53:33;2.60;;;1.35;;
84687;SDS011;74908;42.040;21.322;2024-01-25T13:56:01;2.60;;;1.13;;
84687;SDS011;74908;42.040;21.322;2024-01-25T13:58:27;2.88;;;1.75;;
84687;SDS011;74908;42.040;21.322;2024-01-25T14:00:53;4.22;;;2.42;;
84687;SDS011;74908;42.040;21.322;2024-01-25T14:03:19;4.97;;;2.53;;
84687;SDS011;74908;42.040;21.322;2024-01-25T14:05:45;6.10;;;2.20;;
84687;SDS011;74908;42.040;21.322;2024-01-25T14:08:12;3.30;;;2.15;;
84687;SDS011;74908;42.040;21.322;2024-01-25T14:10:38;4.40;;;2.08;;
84687;SDS011;74908;42.040;21.322;2024-01-25T14:13:04;5.68;;;2.08;;
84687;SDS011;74908;42.040;21.322;2024-01-25T14:15:30;6.20;;;2.80;;
84687;SDS011;74908;42.040;21.322;2024-01-25T14:17:56;7.85;;;3.65;;
84687;SDS011;74908;42.040;21.322;2024-01-25T14:20:23;7.80;;;3.58;;
84687;SDS011;74908;42.040;21.322;2024-01-25T14:22:49;7.68;;;3.75;;
84687;SDS011;74908;42.040;21.322;2024-01-25T14:25:15;7.07;;;3.55;;
84687;SDS011;74908;42.040;21.322;2024-01-25T14:27:41;5.60;;;2.88;;